sensor_id;sensor_type;location;lat;lon;timestamp;P1;durP1;ratioP1;P2;durP2;ratioP2
22415;SDS011;12204;50.600;4.608;2023-02-03T00:03:58;7.32;;;2.30;;
22415;SDS011;12204;50.600;4.608;2023-02-03T00:09:02;6.75;;;2.53;;
22415;SDS011;12204;50.600;4.608;2023-02-03T00:14:07;6.30;;;2.55;;
22415;SDS011;12204;50.600;4.608;2023-02-03T00:19:11;8.52;;;2.40;;
22415;SDS011;12204;50.600;4.608;2023-02-03T00:24:17;7.57;;;2.50;;
22415;SDS011;12204;50.600;4.608;2023-02-03T00:29:25;6.60;;;2.40;;
22415;SDS011;12204;50.600;4.608;2023-02-03T00:34:29;6.05;;;2.40;;
22415;SDS011;12204;50.600;4.608;2023-02-03T00:39:34;6.72;;;2.22;;
22415;SDS011;12204;50.600;4.608;2023-02-03T00:44:39;7.03;;;2.33;;
22415;SDS011;12204;50.600;4.608;2023-02-03T00:49:43;6.47;;;2.42;;
22415;SDS011;12204;50.600;4.608;2023-02-03T00:54:47;6.53;;;2.58;;
22415;SDS011;12204;50.600;4.608;2023-02-03T00:59:52;6.35;;;2.20;;
22415;SDS011;12204;50.600;4.608;2023-02-03T01:04:56;7.85;;;2.70;;
22415;SDS011;12204;50.600;4.608;2023-02-03T01:10:00;7.60;;;2.50;;
22415;SDS011;12204;50.600;4.608;2023-02-03T01:15:05;7.32;;;2.28;;
22415;SDS011;12204;50.600;4.608;2023-02-03T01:20:11;6.23;;;2.30;;
22415;SDS011;12204;50.600;4.608;2023-02-03T01:25:17;7.03;;;2.58;;
22415;SDS011;12204;50.600;4.608;2023-02-03T01:30:22;7.28;;;2.35;;
22415;SDS011;12204;50.600;4.608;2023-02-03T01:35:26;6.53;;;2.47;;
22415;SDS011;12204;50.600;4.608;2023-02-03T01:40:30;7.53;;;2.30;;
22415;SDS011;12204;50.600;4.608;2023-02-03T01:45:35;7.20;;;2.30;;
22415;SDS011;12204;50.600;4.608;2023-02-03T01:50:40;7.30;;;2.50;;
22415;SDS011;12204;50.600;4.608;2023-02-03T01:55:46;6.70;;;2.45;;
22415;SDS011;12204;50.600;4.608;2023-02-03T02:00:53;8.85;;;2.60;;
22415;SDS011;12204;50.600;4.608;2023-02-03T02:05:59;7.45;;;2.35;;
22415;SDS011;12204;50.600;4.608;2023-02-03T02:11:07;6.68;;;2.30;;
22415;SDS011;12204;50.600;4.608;2023-02-03T02:16:16;6.45;;;2.40;;
22415;SDS011;12204;50.600;4.608;2023-02-03T02:21:39;8.57;;;2.70;;
22415;SDS011;12204;50.600;4.608;2023-02-03T02:27:06;7.32;;;2.40;;
22415;SDS011;12204;50.600;4.608;2023-02-03T02:32:33;6.95;;;2.50;;
22415;SDS011;12204;50.600;4.608;2023-02-03T02:38:09;7.75;;;2.78;;
22415;SDS011;12204;50.600;4.608;2023-02-03T02:43:32;6.30;;;2.42;;
22415;SDS011;12204;50.600;4.608;2023-02-03T02:48:45;8.15;;;2.45;;
22415;SDS011;12204;50.600;4.608;2023-02-03T02:53:57;5.07;;;2.33;;
22415;SDS011;12204;50.600;4.608;2023-02-03T02:59:05;6.30;;;2.45;;
22415;SDS011;12204;50.600;4.608;2023-02-03T03:04:11;6.07;;;2.30;;
22415;SDS011;12204;50.600;4.608;2023-02-03T03:09:22;5.97;;;2.28;;
22415;SDS011;12204;50.600;4.608;2023-02-03T03:14:36;6.40;;;2.38;;
22415;SDS011;12204;50.600;4.608;2023-02-03T03:19:49;6.45;;;2.10;;
22415;SDS011;12204;50.600;4.608;2023-02-03T03:24:59;7.25;;;2.10;;
22415;SDS011;12204;50.600;4.608;2023-02-03T03:30:12;6.43;;;2.22;;
22415;SDS011;12204;50.600;4.608;2023-02-03T03:35:24;5.93;;;2.30;;
22415;SDS011;12204;50.600;4.608;2023-02-03T03:40:37;6.30;;;2.00;;
22415;SDS011;12204;50.600;4.608;2023-02-03T03:45:47;6.28;;;2.15;;
22415;SDS011;12204;50.600;4.608;2023-02-03T03:51:01;7.60;;;2.20;;
22415;SDS011;12204;50.600;4.608;2023-02-03T03:56:10;7.30;;;2.10;;
22415;SDS011;12204;50.600;4.608;2023-02-03T04:01:21;5.25;;;2.00;;
22415;SDS011;12204;50.600;4.608;2023-02-03T04:06:27;5.55;;;1.85;;
22415;SDS011;12204;50.600;4.608;2023-02-03T04:11:30;7.97;;;2.17;;
22415;SDS011;12204;50.600;4.608;2023-02-03T04:16:52;4.80;;;1.88;;
22415;SDS011;12204;50.600;4.608;2023-02-03T04:21:57;6.57;;;1.88;;
22415;SDS011;12204;50.600;4.608;2023-02-03T04:27:00;5.13;;;2.00;;
22415;SDS011;12204;50.600;4.608;2023-02-03T04:32:05;5.50;;;2.10;;
22415;SDS011;12204;50.600;4.608;2023-02-03T04:37:11;6.07;;;1.90;;
22415;SDS011;12204;50.600;4.608;2023-02-03T04:42:14;6.60;;;2.03;;
22415;SDS011;12204;50.600;4.608;2023-02-03T04:47:18;5.68;;;1.90;;
22415;SDS011;12204;50.600;4.608;2023-02-03T04:52:24;4.30;;;2.00;;
22415;SDS011;12204;50.600;4.608;2023-02-03T04:57:27;7.10;;;1.90;;
22415;SDS011;12204;50.600;4.608;2023-02-03T05:02:31;6.10;;;2.10;;
22415;SDS011;12204;50.600;4.608;2023-02-03T05:07:36;6.20;;;2.03;;
22415;SDS011;12204;50.600;4.608;2023-02-03T05:12:40;5.07;;;1.80;;
22415;SDS011;12204;50.600;4.608;2023-02-03T05:17:44;6.18;;;1.90;;
22415;SDS011;12204;50.600;4.608;2023-02-03T05:22:49;6.00;;;1.90;;
22415;SDS011;12204;50.600;4.608;2023-02-03T05:27:53;5.65;;;1.90;;
22415;SDS011;12204;50.600;4.608;2023-02-03T05:32:56;5.13;;;1.60;;
22415;SDS011;12204;50.600;4.608;2023-02-03T05:38:01;5.60;;;1.80;;
22415;SDS011;12204;50.600;4.608;2023-02-03T05:43:05;6.90;;;1.80;;
22415;SDS011;12204;50.600;4.608;2023-02-03T05:48:09;4.60;;;1.50;;
22415;SDS011;12204;50.600;4.608;2023-02-03T05:53:15;4.70;;;1.50;;
22415;SDS011;12204;50.600;4.608;2023-02-03T05:58:18;6.20;;;1.52;;
22415;SDS011;12204;50.600;4.608;2023-02-03T06:03:22;5.40;;;1.60;;
22415;SDS011;12204;50.600;4.608;2023-02-03T06:08:27;4.53;;;1.60;;
22415;SDS011;12204;50.600;4.608;2023-02-03T06:13:31;4.82;;;1.40;;
22415;SDS011;12204;50.600;4.608;2023-02-03T06:18:35;5.57;;;1.63;;
22415;SDS011;12204;50.600;4.608;2023-02-03T06:23:40;4.82;;;1.42;;
22415;SDS011;12204;50.600;4.608;2023-02-03T06:28:43;4.85;;;1.55;;
22415;SDS011;12204;50.600;4.608;2023-02-03T06:33:47;5.93;;;1.65;;
22415;SDS011;12204;50.600;4.608;2023-02-03T06:38:52;5.28;;;1.45;;
22415;SDS011;12204;50.600;4.608;2023-02-03T06:43:56;4.18;;;1.30;;
22415;SDS011;12204;50.600;4.608;2023-02-03T06:48:59;4.97;;;1.40;;
22415;SDS011;12204;50.600;4.608;2023-02-03T06:54:05;5.00;;;1.50;;
22415;SDS011;12204;50.600;4.608;2023-02-03T06:59:09;5.22;;;1.67;;
22415;SDS011;12204;50.600;4.608;2023-02-03T07:04:12;4.95;;;1.30;;
22415;SDS011;12204;50.600;4.608;2023-02-03T07:09:18;4.75;;;1.50;;
22415;SDS011;12204;50.600;4.608;2023-02-03T07:14:21;4.32;;;1.40;;
22415;SDS011;12204;50.600;4.608;2023-02-03T07:19:25;4.93;;;1.48;;
22415;SDS011;12204;50.600;4.608;2023-02-03T07:24:30;4.35;;;1.33;;
22415;SDS011;12204;50.600;4.608;2023-02-03T07:29:33;3.95;;;1.35;;
22415;SDS011;12204;50.600;4.608;2023-02-03T07:34:37;3.50;;;1.20;;
22415;SDS011;12204;50.600;4.608;2023-02-03T07:39:42;3.85;;;1.23;;
22415;SDS011;12204;50.600;4.608;2023-02-03T07:44:46;4.05;;;1.50;;
22415;SDS011;12204;50.600;4.608;2023-02-03T07:49:50;4.03;;;1.30;;
22415;SDS011;12204;50.600;4.608;2023-02-03T07:54:55;4.47;;;1.45;;
22415;SDS011;12204;50.600;4.608;2023-02-03T07:59:58;5.40;;;1.40;;
22415;SDS011;12204;50.600;4.608;2023-02-03T08:05:12;3.78;;;1.20;;
22415;SDS011;12204;50.600;4.608;2023-02-03T08:10:19;4.93;;;1.33;;
22415;SDS011;12204;50.600;4.608;2023-02-03T08:15:23;4.93;;;1.30;;
22415;SDS011;12204;50.600;4.608;2023-02-03T08:20:26;4.18;;;1.30;;
22415;SDS011;12204;50.600;4.608;2023-02-03T08:25:32;4.25;;;1.20;;
22415;SDS011;12204;50.600;4.608;2023-02-03T08:30:36;3.90;;;1.27;;
22415;SDS011;12204;50.600;4.608;2023-02-03T08:35:43;3.70;;;1.30;;
22415;SDS011;12204;50.600;4.608;2023-02-03T08:45:53;4.28;;;1.35;;
22415;SDS011;12204;50.600;4.608;2023-02-03T08:50:57;4.68;;;1.50;;
22415;SDS011;12204;50.600;4.608;2023-02-03T08:56:04;5.32;;;1.40;;
22415;SDS011;12204;50.600;4.608;2023-02-03T09:01:09;5.47;;;1.60;;
22415;SDS011;12204;50.600;4.608;2023-02-03T09:06:16;4.93;;;1.20;;
22415;SDS011;12204;50.600;4.608;2023-02-03T09:11:24;4.65;;;1.40;;
22415;SDS011;12204;50.600;4.608;2023-02-03T09:16:28;3.88;;;1.40;;
22415;SDS011;12204;50.600;4.608;2023-02-03T09:21:32;4.57;;;1.38;;
22415;SDS011;12204;50.600;4.608;2023-02-03T09:26:47;4.10;;;1.23;;
22415;SDS011;12204;50.600;4.608;2023-02-03T09:31:51;3.75;;;1.40;;
22415;SDS011;12204;50.600;4.608;2023-02-03T09:36:55;4.88;;;1.23;;
22415;SDS011;12204;50.600;4.608;2023-02-03T09:42:09;4.63;;;1.30;;
22415;SDS011;12204;50.600;4.608;2023-02-03T09:48:08;4.40;;;1.30;;
22415;SDS011;12204;50.600;4.608;2023-02-03T09:53:23;5.50;;;1.40;;
22415;SDS011;12204;50.600;4.608;2023-02-03T09:58:34;3.63;;;1.30;;
22415;SDS011;12204;50.600;4.608;2023-02-03T10:03:38;4.78;;;1.40;;
22415;SDS011;12204;50.600;4.608;2023-02-03T10:08:54;5.82;;;1.30;;
22415;SDS011;12204;50.600;4.608;2023-02-03T10:14:30;4.13;;;1.40;;
22415;SDS011;12204;50.600;4.608;2023-02-03T10:19:52;6.05;;;1.63;;
22415;SDS011;12204;50.600;4.608;2023-02-03T10:25:04;3.30;;;1.10;;
22415;SDS011;12204;50.600;4.608;2023-02-03T10:35:31;4.70;;;1.23;;
22415;SDS011;12204;50.600;4.608;2023-02-03T10:40:46;4.83;;;1.40;;
22415;SDS011;12204;50.600;4.608;2023-02-03T10:45:51;3.75;;;1.20;;
22415;SDS011;12204;50.600;4.608;2023-02-03T10:50:55;5.22;;;1.50;;
22415;SDS011;12204;50.600;4.608;2023-02-03T10:56:02;4.05;;;1.23;;
22415;SDS011;12204;50.600;4.608;2023-02-03T11:01:11;4.75;;;1.30;;
22415;SDS011;12204;50.600;4.608;2023-02-03T11:06:17;3.78;;;1.20;;
22415;SDS011;12204;50.600;4.608;2023-02-03T11:11:22;3.30;;;1.10;;
22415;SDS011;12204;50.600;4.608;2023-02-03T11:16:30;5.25;;;1.30;;
22415;SDS011;12204;50.600;4.608;2023-02-03T11:21:40;3.55;;;1.20;;
22415;SDS011;12204;50.600;4.608;2023-02-03T11:26:49;6.35;;;1.70;;
22415;SDS011;12204;50.600;4.608;2023-02-03T11:32:01;5.43;;;1.40;;
22415;SDS011;12204;50.600;4.608;2023-02-03T11:37:25;4.28;;;1.13;;
22415;SDS011;12204;50.600;4.608;2023-02-03T11:42:33;3.70;;;1.30;;
22415;SDS011;12204;50.600;4.608;2023-02-03T11:47:44;4.60;;;1.30;;
22415;SDS011;12204;50.600;4.608;2023-02-03T11:52:55;4.38;;;1.25;;
22415;SDS011;12204;50.600;4.608;2023-02-03T12:04:07;4.65;;;1.33;;
22415;SDS011;12204;50.600;4.608;2023-02-03T12:09:41;3.70;;;1.10;;
22415;SDS011;12204;50.600;4.608;2023-02-03T12:14:56;5.28;;;1.20;;
22415;SDS011;12204;50.600;4.608;2023-02-03T12:20:24;3.45;;;1.10;;
22415;SDS011;12204;50.600;4.608;2023-02-03T12:25:46;4.75;;;1.20;;
22415;SDS011;12204;50.600;4.608;2023-02-03T12:31:07;4.55;;;1.17;;
22415;SDS011;12204;50.600;4.608;2023-02-03T12:36:22;4.18;;;1.10;;
22415;SDS011;12204;50.600;4.608;2023-02-03T12:41:33;3.63;;;1.20;;
22415;SDS011;12204;50.600;4.608;2023-02-03T12:46:42;4.15;;;1.23;;
22415;SDS011;12204;50.600;4.608;2023-02-03T12:51:54;3.78;;;1.13;;
22415;SDS011;12204;50.600;4.608;2023-02-03T12:57:08;3.40;;;1.10;;
22415;SDS011;12204;50.600;4.608;2023-02-03T13:07:32;2.57;;;0.87;;
22415;SDS011;12204;50.600;4.608;2023-02-03T13:12:44;2.80;;;1.15;;
22415;SDS011;12204;50.600;4.608;2023-02-03T13:17:54;2.88;;;1.00;;
22415;SDS011;12204;50.600;4.608;2023-02-03T13:23:04;5.68;;;1.30;;
22415;SDS011;12204;50.600;4.608;2023-02-03T13:28:15;4.50;;;1.10;;
22415;SDS011;12204;50.600;4.608;2023-02-03T13:33:43;2.92;;;1.00;;
22415;SDS011;12204;50.600;4.608;2023-02-03T13:39:13;3.92;;;1.10;;
22415;SDS011;12204;50.600;4.608;2023-02-03T13:44:37;3.42;;;0.95;;
22415;SDS011;12204;50.600;4.608;2023-02-03T13:49:44;3.03;;;0.95;;
22415;SDS011;12204;50.600;4.608;2023-02-03T13:54:57;4.03;;;1.08;;
22415;SDS011;12204;50.600;4.608;2023-02-03T14:00:03;3.50;;;0.90;;
22415;SDS011;12204;50.600;4.608;2023-02-03T14:05:42;4.07;;;1.10;;
22415;SDS011;12204;50.600;4.608;2023-02-03T14:16:47;3.55;;;1.00;;
22415;SDS011;12204;50.600;4.608;2023-02-03T14:27:03;3.33;;;1.00;;
22415;SDS011;12204;50.600;4.608;2023-02-03T14:32:19;3.15;;;1.00;;
22415;SDS011;12204;50.600;4.608;2023-02-03T14:37:24;4.25;;;1.10;;
22415;SDS011;12204;50.600;4.608;2023-02-03T14:48:39;3.00;;;1.00;;
22415;SDS011;12204;50.600;4.608;2023-02-03T14:54:07;3.45;;;1.00;;
22415;SDS011;12204;50.600;4.608;2023-02-03T14:59:36;3.83;;;1.02;;
22415;SDS011;12204;50.600;4.608;2023-02-03T15:04:46;2.50;;;0.90;;
22415;SDS011;12204;50.600;4.608;2023-02-03T15:09:51;2.95;;;0.98;;
22415;SDS011;12204;50.600;4.608;2023-02-03T15:15:12;3.70;;;1.00;;
22415;SDS011;12204;50.600;4.608;2023-02-03T15:20:24;2.50;;;0.80;;
22415;SDS011;12204;50.600;4.608;2023-02-03T15:25:39;3.78;;;0.95;;
22415;SDS011;12204;50.600;4.608;2023-02-03T15:30:44;3.00;;;0.82;;
22415;SDS011;12204;50.600;4.608;2023-02-03T15:35:55;2.78;;;1.00;;
22415;SDS011;12204;50.600;4.608;2023-02-03T15:41:05;3.25;;;0.90;;
22415;SDS011;12204;50.600;4.608;2023-02-03T15:46:15;3.50;;;0.82;;
22415;SDS011;12204;50.600;4.608;2023-02-03T15:51:25;2.92;;;0.90;;
22415;SDS011;12204;50.600;4.608;2023-02-03T15:56:34;2.15;;;0.80;;
22415;SDS011;12204;50.600;4.608;2023-02-03T16:01:43;3.47;;;0.90;;
22415;SDS011;12204;50.600;4.608;2023-02-03T16:06:48;4.22;;;1.00;;
22415;SDS011;12204;50.600;4.608;2023-02-03T16:12:04;3.95;;;1.00;;
22415;SDS011;12204;50.600;4.608;2023-02-03T16:17:24;2.28;;;0.90;;
22415;SDS011;12204;50.600;4.608;2023-02-03T16:22:35;2.33;;;0.80;;
22415;SDS011;12204;50.600;4.608;2023-02-03T16:27:42;3.03;;;0.98;;
22415;SDS011;12204;50.600;4.608;2023-02-03T16:32:57;3.10;;;0.80;;
22415;SDS011;12204;50.600;4.608;2023-02-03T16:38:24;2.67;;;0.90;;
22415;SDS011;12204;50.600;4.608;2023-02-03T16:43:45;4.05;;;0.90;;
22415;SDS011;12204;50.600;4.608;2023-02-03T16:49:08;4.47;;;1.05;;
22415;SDS011;12204;50.600;4.608;2023-02-03T16:54:29;2.97;;;0.90;;
22415;SDS011;12204;50.600;4.608;2023-02-03T16:59:33;3.15;;;0.80;;
22415;SDS011;12204;50.600;4.608;2023-02-03T17:04:38;2.42;;;0.80;;
22415;SDS011;12204;50.600;4.608;2023-02-03T17:09:41;2.10;;;0.80;;
22415;SDS011;12204;50.600;4.608;2023-02-03T17:14:45;3.55;;;0.90;;
22415;SDS011;12204;50.600;4.608;2023-02-03T17:19:50;2.55;;;0.90;;
22415;SDS011;12204;50.600;4.608;2023-02-03T17:24:54;2.42;;;0.90;;
22415;SDS011;12204;50.600;4.608;2023-02-03T17:29:59;2.30;;;0.80;;
22415;SDS011;12204;50.600;4.608;2023-02-03T17:35:04;2.25;;;0.75;;
22415;SDS011;12204;50.600;4.608;2023-02-03T17:40:09;3.15;;;0.90;;
22415;SDS011;12204;50.600;4.608;2023-02-03T17:45:31;2.33;;;0.80;;
22415;SDS011;12204;50.600;4.608;2023-02-03T17:50:53;2.88;;;0.80;;
22415;SDS011;12204;50.600;4.608;2023-02-03T17:56:15;3.22;;;1.00;;
22415;SDS011;12204;50.600;4.608;2023-02-03T18:01:22;2.90;;;1.00;;
22415;SDS011;12204;50.600;4.608;2023-02-03T18:06:28;3.15;;;1.10;;
22415;SDS011;12204;50.600;4.608;2023-02-03T18:11:33;2.85;;;0.90;;
22415;SDS011;12204;50.600;4.608;2023-02-03T18:16:39;3.05;;;0.90;;
22415;SDS011;12204;50.600;4.608;2023-02-03T18:21:44;3.45;;;0.85;;
22415;SDS011;12204;50.600;4.608;2023-02-03T18:26:48;2.55;;;0.90;;
22415;SDS011;12204;50.600;4.608;2023-02-03T18:31:53;2.58;;;1.02;;
22415;SDS011;12204;50.600;4.608;2023-02-03T18:36:58;3.20;;;0.90;;
22415;SDS011;12204;50.600;4.608;2023-02-03T18:42:02;3.80;;;0.90;;
22415;SDS011;12204;50.600;4.608;2023-02-03T18:47:07;2.90;;;0.95;;
22415;SDS011;12204;50.600;4.608;2023-02-03T18:52:12;3.28;;;1.00;;
22415;SDS011;12204;50.600;4.608;2023-02-03T18:57:16;4.00;;;1.00;;
22415;SDS011;12204;50.600;4.608;2023-02-03T19:02:20;3.28;;;1.05;;
22415;SDS011;12204;50.600;4.608;2023-02-03T19:07:27;3.33;;;0.88;;
22415;SDS011;12204;50.600;4.608;2023-02-03T19:12:31;2.97;;;0.90;;
22415;SDS011;12204;50.600;4.608;2023-02-03T19:17:34;3.25;;;1.00;;
22415;SDS011;12204;50.600;4.608;2023-02-03T19:22:40;1.98;;;0.90;;
22415;SDS011;12204;50.600;4.608;2023-02-03T19:27:44;4.72;;;1.08;;
22415;SDS011;12204;50.600;4.608;2023-02-03T19:32:47;3.15;;;0.90;;
22415;SDS011;12204;50.600;4.608;2023-02-03T19:37:52;3.17;;;1.27;;
22415;SDS011;12204;50.600;4.608;2023-02-03T19:42:56;3.67;;;1.00;;
22415;SDS011;12204;50.600;4.608;2023-02-03T19:48:00;2.70;;;0.95;;
22415;SDS011;12204;50.600;4.608;2023-02-03T19:53:05;2.47;;;0.90;;
22415;SDS011;12204;50.600;4.608;2023-02-03T19:58:09;1.75;;;0.88;;
22415;SDS011;12204;50.600;4.608;2023-02-03T20:03:15;2.47;;;1.00;;
22415;SDS011;12204;50.600;4.608;2023-02-03T20:08:21;2.97;;;1.10;;
22415;SDS011;12204;50.600;4.608;2023-02-03T20:13:25;3.05;;;1.10;;
22415;SDS011;12204;50.600;4.608;2023-02-03T20:18:28;2.60;;;0.98;;
22415;SDS011;12204;50.600;4.608;2023-02-03T20:23:34;3.50;;;1.00;;
22415;SDS011;12204;50.600;4.608;2023-02-03T20:28:38;3.05;;;0.90;;
22415;SDS011;12204;50.600;4.608;2023-02-03T20:33:41;4.72;;;1.02;;
22415;SDS011;12204;50.600;4.608;2023-02-03T20:38:47;3.45;;;1.00;;
22415;SDS011;12204;50.600;4.608;2023-02-03T20:43:50;2.70;;;1.00;;
22415;SDS011;12204;50.600;4.608;2023-02-03T20:48:54;3.10;;;1.00;;
22415;SDS011;12204;50.600;4.608;2023-02-03T20:53:59;3.10;;;1.00;;
22415;SDS011;12204;50.600;4.608;2023-02-03T20:59:04;4.07;;;1.30;;
22415;SDS011;12204;50.600;4.608;2023-02-03T21:04:12;4.18;;;1.20;;
22415;SDS011;12204;50.600;4.608;2023-02-03T21:09:38;2.22;;;1.00;;
22415;SDS011;12204;50.600;4.608;2023-02-03T21:14:43;3.40;;;1.30;;
22415;SDS011;12204;50.600;4.608;2023-02-03T21:19:49;3.60;;;1.10;;
22415;SDS011;12204;50.600;4.608;2023-02-03T21:24:56;3.75;;;1.17;;
22415;SDS011;12204;50.600;4.608;2023-02-03T21:30:09;3.45;;;1.10;;
22415;SDS011;12204;50.600;4.608;2023-02-03T21:35:30;3.10;;;1.23;;
22415;SDS011;12204;50.600;4.608;2023-02-03T21:40:39;4.68;;;1.30;;
22415;SDS011;12204;50.600;4.608;2023-02-03T21:45:43;4.72;;;1.20;;
22415;SDS011;12204;50.600;4.608;2023-02-03T21:50:47;3.13;;;1.17;;
22415;SDS011;12204;50.600;4.608;2023-02-03T21:55:52;3.97;;;1.35;;
22415;SDS011;12204;50.600;4.608;2023-02-03T22:00:57;4.03;;;1.27;;
22415;SDS011;12204;50.600;4.608;2023-02-03T22:06:11;3.53;;;1.20;;
22415;SDS011;12204;50.600;4.608;2023-02-03T22:11:29;4.05;;;1.35;;
22415;SDS011;12204;50.600;4.608;2023-02-03T22:16:35;4.25;;;1.27;;
22415;SDS011;12204;50.600;4.608;2023-02-03T22:21:38;5.53;;;1.50;;
22415;SDS011;12204;50.600;4.608;2023-02-03T22:26:43;4.35;;;1.35;;
22415;SDS011;12204;50.600;4.608;2023-02-03T22:31:47;4.15;;;1.50;;
22415;SDS011;12204;50.600;4.608;2023-02-03T22:36:51;5.93;;;1.48;;
22415;SDS011;12204;50.600;4.608;2023-02-03T22:41:56;4.30;;;1.55;;
22415;SDS011;12204;50.600;4.608;2023-02-03T22:46:59;3.88;;;1.45;;
22415;SDS011;12204;50.600;4.608;2023-02-03T22:52:03;5.30;;;1.75;;
22415;SDS011;12204;50.600;4.608;2023-02-03T22:57:08;5.55;;;1.80;;
22415;SDS011;12204;50.600;4.608;2023-02-03T23:02:12;3.97;;;1.50;;
22415;SDS011;12204;50.600;4.608;2023-02-03T23:07:16;4.15;;;1.50;;
22415;SDS011;12204;50.600;4.608;2023-02-03T23:12:22;3.88;;;1.58;;
22415;SDS011;12204;50.600;4.608;2023-02-03T23:17:26;3.40;;;1.40;;
22415;SDS011;12204;50.600;4.608;2023-02-03T23:22:29;4.82;;;1.80;;
22415;SDS011;12204;50.600;4.608;2023-02-03T23:27:34;4.97;;;1.85;;
22415;SDS011;12204;50.600;4.608;2023-02-03T23:32:38;4.03;;;1.58;;
22415;SDS011;12204;50.600;4.608;2023-02-03T23:37:42;4.95;;;1.90;;
22415;SDS011;12204;50.600;4.608;2023-02-03T23:42:47;4.65;;;1.65;;
22415;SDS011;12204;50.600;4.608;2023-02-03T23:47:51;4.60;;;1.75;;
22415;SDS011;12204;50.600;4.608;2023-02-03T23:52:54;5.97;;;2.03;;
22415;SDS011;12204;50.600;4.608;2023-02-03T23:57:59;5.18;;;1.98;;
